WXM80 ListenWXM80 Stop

You find our weather info also at:

UK Metoffice

WeatherCloud

Weather Underground

Northeastern Weather Network

AWEKAS

Citizen Weather Observer Program (CWOP)

HAMweather, WeatherForYou, PWS Weather


Weather Underground History page Text

Daily Summary for November 30, 2017 Units:  Both    English   Metric
« Previous Day
Next Day »
Daily Weekly Monthly Yearly Custom
  High: Low: Average:
Temperature: 50.6 °F /  10.3 °C 35.5 °F /  1.9 °C 43.3 °F /  6.3 °C
Dew Point: 48.4 °F /  9.1 °C 28.0 °F /  -2.2 °C 36.2 °F /  2.3 °C
Humidity: 96 % 61 % 76 %
Wind Speed: 9.2 mph /  14.8 km/h - 2.1 mph /  3.4 km/h
Wind Gust: 13.8 mph /  22.2 km/h - -
Wind:- - ESE
Pressure: 30.36 in /  1028 hPa 29.83 in /  1010 hPa -
Precipitation: 0.00 in /  0 mm    
Historical Graphs
 
 
Tabular Data for November 30, 2017
Time Temperature Dew Point Pressure Wind Wind Speed Wind Gust Humidity Rainfall Rate (Hourly)
00:02 42.5 °F /  5.8 °C 30.0 °F /  -1.1 °C 30.32 in /  1026.6 hPa North 3.8 mph /  6.1 km/h 6.9 mph /  11.1 km/h 61 % 0.00 in /  0 mm
00:07 42.4 °F /  5.8 °C 30.3 °F /  -0.9 °C 30.32 in /  1026.6 hPa North 3.6 mph /  5.8 km/h 5.8 mph /  9.3 km/h 62 % 0.00 in /  0 mm
00:12 42.3 °F /  5.7 °C 30.2 °F /  -1 °C 30.32 in /  1026.6 hPa NNW 3.7 mph /  6 km/h 9.2 mph /  14.8 km/h 62 % 0.00 in /  0 mm
00:17 42.2 °F /  5.7 °C 30.1 °F /  -1.1 °C 30.31 in /  1026.3 hPa North 5.2 mph /  8.4 km/h 6.0 mph /  9.7 km/h 62 % 0.00 in /  0 mm
00:22 42.2 °F /  5.7 °C 30.1 °F /  -1.1 °C 30.31 in /  1026.3 hPa North 1.4 mph /  2.3 km/h 4.6 mph /  7.4 km/h 62 % 0.00 in /  0 mm
00:28 42.1 °F /  5.6 °C 30.4 °F /  -0.9 °C 30.32 in /  1026.6 hPa NNE 3.9 mph /  6.3 km/h 6.9 mph /  11.1 km/h 63 % 0.00 in /  0 mm
00:38 42.0 °F /  5.6 °C 30.7 °F /  -0.7 °C 30.31 in /  1026.3 hPa North 6.1 mph /  9.8 km/h 8.1 mph /  13 km/h 64 % 0.00 in /  0 mm
00:43 41.9 °F /  5.5 °C 30.2 °F /  -1 °C 30.30 in /  1026 hPa ENE 5.1 mph /  8.2 km/h 11.5 mph /  18.5 km/h 63 % 0.00 in /  0 mm
00:48 41.9 °F /  5.5 °C 30.6 °F /  -0.8 °C 30.31 in /  1026.3 hPa NNE 4.3 mph /  6.9 km/h 10.4 mph /  16.7 km/h 64 % 0.00 in /  0 mm
01:03 41.9 °F /  5.5 °C 30.2 °F /  -1 °C 30.31 in /  1026.3 hPa NNE 7.4 mph /  11.9 km/h 10.4 mph /  16.7 km/h 63 % 0.00 in /  0 mm
01:08 41.8 °F /  5.4 °C 30.5 °F /  -0.8 °C 30.31 in /  1026.3 hPa North 5.7 mph /  9.2 km/h 13.8 mph /  22.2 km/h 64 % 0.00 in /  0 mm
01:13 41.9 °F /  5.5 °C 30.6 °F /  -0.8 °C 30.31 in /  1026.3 hPa NNE 5.4 mph /  8.7 km/h 11.5 mph /  18.5 km/h 64 % 0.00 in /  0 mm
01:18 41.8 °F /  5.4 °C 30.5 °F /  -0.8 °C 30.31 in /  1026.3 hPa NNE 7.7 mph /  12.4 km/h 11.5 mph /  18.5 km/h 64 % 0.00 in /  0 mm
01:23 41.8 °F /  5.4 °C 30.1 °F /  -1.1 °C 30.31 in /  1026.3 hPa NE 8.3 mph /  13.4 km/h 12.0 mph /  19.3 km/h 63 % 0.00 in /  0 mm
01:28 41.8 °F /  5.4 °C 30.5 °F /  -0.8 °C 30.31 in /  1026.3 hPa NNE 4.9 mph /  7.9 km/h 9.2 mph /  14.8 km/h 64 % 0.00 in /  0 mm
01:33 41.8 °F /  5.4 °C 30.5 °F /  -0.8 °C 30.31 in /  1026.3 hPa NNE 6.6 mph /  10.6 km/h 11.0 mph /  17.7 km/h 64 % 0.00 in /  0 mm
01:38 41.8 °F /  5.4 °C 30.1 °F /  -1.1 °C 30.31 in /  1026.3 hPa NNE 6.6 mph /  10.6 km/h 11.5 mph /  18.5 km/h 63 % 0.00 in /  0 mm
01:43 41.7 °F /  5.4 °C 30.4 °F /  -0.9 °C 30.31 in /  1026.3 hPa NNE 6.4 mph /  10.3 km/h 12.7 mph /  20.4 km/h 64 % 0.00 in /  0 mm
01:48 41.7 °F /  5.4 °C 30.4 °F /  -0.9 °C 30.31 in /  1026.3 hPa NNE 5.6 mph /  9 km/h 11.5 mph /  18.5 km/h 64 % 0.00 in /  0 mm
01:53 41.6 °F /  5.3 °C 30.7 °F /  -0.7 °C 30.31 in /  1026.3 hPa ENE 3.5 mph /  5.6 km/h 8.1 mph /  13 km/h 65 % 0.00 in /  0 mm
01:58 41.5 °F /  5.3 °C 30.2 °F /  -1 °C 30.30 in /  1026 hPa NNE 7.5 mph /  12.1 km/h 12.7 mph /  20.4 km/h 64 % 0.00 in /  0 mm
02:03 41.5 °F /  5.3 °C 30.6 °F /  -0.8 °C 30.30 in /  1026 hPa NE 3.3 mph /  5.3 km/h 8.1 mph /  13 km/h 65 % 0.00 in /  0 mm
02:13 41.3 °F /  5.2 °C 30.0 °F /  -1.1 °C 30.31 in /  1026.3 hPa NNE 5.5 mph /  8.9 km/h 10.4 mph /  16.7 km/h 64 % 0.00 in /  0 mm
02:18 41.2 °F /  5.1 °C 29.9 °F /  -1.2 °C 30.32 in /  1026.6 hPa NNE 2.3 mph /  3.7 km/h 4.6 mph /  7.4 km/h 64 % 0.00 in /  0 mm
02:23 41.1 °F /  5.1 °C 29.8 °F /  -1.2 °C 30.32 in /  1026.6 hPa NNE 6.3 mph /  10.1 km/h 8.1 mph /  13 km/h 64 % 0.00 in /  0 mm
02:28 41.1 °F /  5.1 °C 30.2 °F /  -1 °C 30.32 in /  1026.6 hPa NNE 6.4 mph /  10.3 km/h 10.0 mph /  16.1 km/h 65 % 0.00 in /  0 mm
02:33 41.0 °F /  5 °C 29.7 °F /  -1.3 °C 30.33 in /  1027 hPa NE 5.7 mph /  9.2 km/h 8.1 mph /  13 km/h 64 % 0.00 in /  0 mm
02:38 40.9 °F /  4.9 °C 30.0 °F /  -1.1 °C 30.33 in /  1027 hPa NNE 2.6 mph /  4.2 km/h 4.0 mph /  6.4 km/h 65 % 0.00 in /  0 mm
02:43 40.9 °F /  4.9 °C 30.0 °F /  -1.1 °C 30.33 in /  1027 hPa NNE 5.5 mph /  8.9 km/h 9.2 mph /  14.8 km/h 65 % 0.00 in /  0 mm
02:44 40.9 °F /  4.9 °C 30.0 °F /  -1.1 °C 30.32 in /  1026.6 hPa NNE 5.3 mph /  8.5 km/h 7.0 mph /  11.3 km/h 65 % 0.00 in /  0 mm
02:49 40.7 °F /  4.8 °C 29.8 °F /  -1.2 °C 30.33 in /  1027 hPa ENE 2.2 mph /  3.5 km/h 4.0 mph /  6.4 km/h 65 % 0.00 in /  0 mm
02:54 40.7 °F /  4.8 °C 30.2 °F /  -1 °C 30.33 in /  1027 hPa NNE 1.7 mph /  2.7 km/h 4.0 mph /  6.4 km/h 66 % 0.00 in /  0 mm
02:59 40.6 °F /  4.8 °C 30.1 °F /  -1.1 °C 30.33 in /  1027 hPa North 2.7 mph /  4.3 km/h 5.0 mph /  8 km/h 66 % 0.00 in /  0 mm
03:09 40.4 °F /  4.7 °C 29.9 °F /  -1.2 °C 30.33 in /  1027 hPa NNE 3.6 mph /  5.8 km/h 4.6 mph /  7.4 km/h 66 % 0.00 in /  0 mm
03:14 40.2 °F /  4.6 °C 29.4 °F /  -1.4 °C 30.33 in /  1027 hPa NNE 3.5 mph /  5.6 km/h 5.8 mph /  9.3 km/h 65 % 0.00 in /  0 mm
03:19 40.2 °F /  4.6 °C 29.4 °F /  -1.4 °C 30.33 in /  1027 hPa NNE 3.1 mph /  5 km/h 4.6 mph /  7.4 km/h 65 % 0.00 in /  0 mm
03:24 40.1 °F /  4.5 °C 29.3 °F /  -1.5 °C 30.34 in /  1027.3 hPa NE 3.9 mph /  6.3 km/h 8.1 mph /  13 km/h 65 % 0.00 in /  0 mm
03:29 40.1 °F /  4.5 °C 29.3 °F /  -1.5 °C 30.33 in /  1027 hPa NNE 5.3 mph /  8.5 km/h 10.4 mph /  16.7 km/h 65 % 0.00 in /  0 mm
03:34 40.0 °F /  4.4 °C 29.6 °F /  -1.3 °C 30.33 in /  1027 hPa NNE 3.4 mph /  5.5 km/h 4.6 mph /  7.4 km/h 66 % 0.00 in /  0 mm
03:44 39.9 °F /  4.4 °C 29.5 °F /  -1.4 °C 30.34 in /  1027.3 hPa East 4.8 mph /  7.7 km/h 8.1 mph /  13 km/h 66 % 0.00 in /  0 mm
03:54 39.8 °F /  4.3 °C 29.4 °F /  -1.4 °C 30.34 in /  1027.3 hPa ENE 3.5 mph /  5.6 km/h 5.0 mph /  8 km/h 66 % 0.00 in /  0 mm
04:00 39.8 °F /  4.3 °C 29.4 °F /  -1.4 °C 30.33 in /  1027 hPa ENE 3.3 mph /  5.3 km/h 6.9 mph /  11.1 km/h 66 % 0.00 in /  0 mm
04:10 39.7 °F /  4.3 °C 28.9 °F /  -1.7 °C 30.33 in /  1027 hPa NNE 4.9 mph /  7.9 km/h 6.9 mph /  11.1 km/h 65 % 0.00 in /  0 mm
04:15 39.7 °F /  4.3 °C 29.3 °F /  -1.5 °C 30.34 in /  1027.3 hPa NE 3.8 mph /  6.1 km/h 8.1 mph /  13 km/h 66 % 0.00 in /  0 mm
04:20 39.7 °F /  4.3 °C 29.3 °F /  -1.5 °C 30.34 in /  1027.3 hPa ENE 3.5 mph /  5.6 km/h 5.0 mph /  8 km/h 66 % 0.00 in /  0 mm
04:25 39.7 °F /  4.3 °C 29.3 °F /  -1.5 °C 30.34 in /  1027.3 hPa NE 1.3 mph /  2.1 km/h 3.5 mph /  5.6 km/h 66 % 0.00 in /  0 mm
04:30 39.7 °F /  4.3 °C 28.9 °F /  -1.7 °C 30.34 in /  1027.3 hPa ENE 1.3 mph /  2.1 km/h 3.5 mph /  5.6 km/h 65 % 0.00 in /  0 mm
04:35 39.7 °F /  4.3 °C 29.3 °F /  -1.5 °C 30.34 in /  1027.3 hPa NE 0.8 mph /  1.3 km/h 2.3 mph /  3.7 km/h 66 % 0.00 in /  0 mm
04:40 39.6 °F /  4.2 °C 29.2 °F /  -1.6 °C 30.35 in /  1027.7 hPa ENE 1.1 mph /  1.8 km/h 3.5 mph /  5.6 km/h 66 % 0.00 in /  0 mm
04:45 39.5 °F /  4.2 °C 29.4 °F /  -1.4 °C 30.34 in /  1027.3 hPa ENE 3.7 mph /  6 km/h 8.1 mph /  13 km/h 67 % 0.00 in /  0 mm
04:55 39.3 °F /  4.1 °C 29.3 °F /  -1.5 °C 30.34 in /  1027.3 hPa ENE 3.1 mph /  5 km/h 5.0 mph /  8 km/h 67 % 0.00 in /  0 mm
05:00 39.3 °F /  4.1 °C 29.3 °F /  -1.5 °C 30.34 in /  1027.3 hPa ENE 1.0 mph /  1.6 km/h 3.5 mph /  5.6 km/h 67 % 0.00 in /  0 mm
05:05 39.2 °F /  4 °C 29.2 °F /  -1.6 °C 30.34 in /  1027.3 hPa ENE 1.6 mph /  2.6 km/h 3.5 mph /  5.6 km/h 67 % 0.00 in /  0 mm
05:15 39.2 °F /  4 °C 29.5 °F /  -1.4 °C 30.34 in /  1027.3 hPa NNE 2.3 mph /  3.7 km/h 3.5 mph /  5.6 km/h 68 % 0.00 in /  0 mm
05:20 39.1 °F /  3.9 °C 29.1 °F /  -1.6 °C 30.35 in /  1027.7 hPa NE 0.6 mph /  1 km/h 3.5 mph /  5.6 km/h 67 % 0.00 in /  0 mm
05:31 38.9 °F /  3.8 °C 29.2 °F /  -1.6 °C 30.35 in /  1027.7 hPa NE 0.3 mph /  0.5 km/h 2.0 mph /  3.2 km/h 68 % 0.00 in /  0 mm
05:36 38.7 °F /  3.7 °C 29.0 °F /  -1.7 °C 30.35 in /  1027.7 hPa Calm   1.0 mph /  1.6 km/h 68 % 0.00 in /  0 mm
05:41 38.5 °F /  3.6 °C 29.2 °F /  -1.6 °C 30.35 in /  1027.7 hPa Calm     69 % 0.00 in /  0 mm
05:46 38.2 °F /  3.4 °C 28.9 °F /  -1.7 °C 30.36 in /  1028 hPa Calm   1.0 mph /  1.6 km/h 69 % 0.00 in /  0 mm
05:51 37.9 °F /  3.3 °C 29.0 °F /  -1.7 °C 30.36 in /  1028 hPa Calm   1.0 mph /  1.6 km/h 70 % 0.00 in /  0 mm
05:56 37.6 °F /  3.1 °C 29.0 °F /  -1.7 °C 30.36 in /  1028 hPa Calm   3.0 mph /  4.8 km/h 71 % 0.00 in /  0 mm
06:01 37.2 °F /  2.9 °C 28.7 °F /  -1.8 °C 30.36 in /  1028 hPa Calm     71 % 0.00 in /  0 mm
06:11 36.6 °F /  2.6 °C 28.4 °F /  -2 °C 30.36 in /  1028 hPa Calm   3.0 mph /  4.8 km/h 72 % 0.00 in /  0 mm
06:16 36.3 °F /  2.4 °C 28.5 °F /  -1.9 °C 30.36 in /  1028 hPa Calm   1.0 mph /  1.6 km/h 73 % 0.00 in /  0 mm
06:26 35.9 °F /  2.2 °C 28.4 °F /  -2 °C 30.36 in /  1028 hPa Calm   1.0 mph /  1.6 km/h 74 % 0.00 in /  0 mm
06:31 35.7 °F /  2.1 °C 28.2 °F /  -2.1 °C 30.36 in /  1028 hPa Calm   4.0 mph /  6.4 km/h 74 % 0.00 in /  0 mm
06:36 35.6 °F /  2 °C 28.1 °F /  -2.2 °C 30.36 in /  1028 hPa NE 1.0 mph /  1.6 km/h 5.0 mph /  8 km/h 74 % 0.00 in /  0 mm
06:41 35.5 °F /  1.9 °C 28.0 °F /  -2.2 °C 30.36 in /  1028 hPa ENE 2.0 mph /  3.2 km/h 4.0 mph /  6.4 km/h 74 % 0.00 in /  0 mm
06:46 35.6 °F /  2 °C 28.5 °F /  -1.9 °C 30.36 in /  1028 hPa ENE 2.0 mph /  3.2 km/h 4.0 mph /  6.4 km/h 75 % 0.00 in /  0 mm
06:51 35.8 °F /  2.1 °C 28.4 °F /  -2 °C 30.36 in /  1028 hPa ENE 2.0 mph /  3.2 km/h 5.0 mph /  8 km/h 74 % 0.00 in /  0 mm
07:06 37.0 °F /  2.8 °C 28.8 °F /  -1.8 °C 30.35 in /  1027.7 hPa ENE 3.7 mph /  6 km/h 5.0 mph /  8 km/h 72 % 0.00 in /  0 mm
07:11 37.6 °F /  3.1 °C 29.4 °F /  -1.4 °C 30.35 in /  1027.7 hPa East 5.7 mph /  9.2 km/h 8.1 mph /  13 km/h 72 % 0.00 in /  0 mm
07:16 38.0 °F /  3.3 °C 29.8 °F /  -1.2 °C 30.34 in /  1027.3 hPa East 4.7 mph /  7.6 km/h 6.9 mph /  11.1 km/h 72 % 0.00 in /  0 mm
07:19 38.2 °F /  3.4 °C 29.6 °F /  -1.3 °C 30.34 in /  1027.3 hPa NE 4.8 mph /  7.7 km/h 8.1 mph /  13 km/h 71 % 0.00 in /  0 mm
07:24 38.5 °F /  3.6 °C 30.3 °F /  -0.9 °C 30.34 in /  1027.3 hPa East 5.3 mph /  8.5 km/h 8.1 mph /  13 km/h 72 % 0.00 in /  0 mm
07:29 38.7 °F /  3.7 °C 30.1 °F /  -1.1 °C 30.33 in /  1027 hPa ENE 5.6 mph /  9 km/h 10.4 mph /  16.7 km/h 71 % 0.00 in /  0 mm
07:34 38.9 °F /  3.8 °C 30.6 °F /  -0.8 °C 30.31 in /  1026.3 hPa ENE 9.2 mph /  14.8 km/h 12.0 mph /  19.3 km/h 72 % 0.00 in /  0 mm
07:39 38.9 °F /  3.8 °C 30.3 °F /  -0.9 °C 30.33 in /  1027 hPa East 6.3 mph /  10.1 km/h 8.1 mph /  13 km/h 71 % 0.00 in /  0 mm
07:44 39.0 °F /  3.9 °C 30.7 °F /  -0.7 °C 30.33 in /  1027 hPa ENE 5.7 mph /  9.2 km/h 9.2 mph /  14.8 km/h 72 % 0.00 in /  0 mm
07:49 39.1 °F /  3.9 °C 31.2 °F /  -0.4 °C 30.34 in /  1027.3 hPa ENE 5.4 mph /  8.7 km/h 8.1 mph /  13 km/h 73 % 0.00 in /  0 mm
07:54 39.1 °F /  3.9 °C 31.5 °F /  -0.3 °C 30.35 in /  1027.7 hPa ENE 5.4 mph /  8.7 km/h 5.8 mph /  9.3 km/h 74 % 0.00 in /  0 mm
08:05 39.3 °F /  4.1 °C 32.0 °F /  0 °C 30.34 in /  1027.3 hPa ENE 3.2 mph /  5.1 km/h 6.9 mph /  11.1 km/h 75 % 0.00 in /  0 mm
08:15 39.5 °F /  4.2 °C 32.6 °F /  0.3 °C 30.34 in /  1027.3 hPa ENE 4.2 mph /  6.8 km/h 6.9 mph /  11.1 km/h 76 % 0.00 in /  0 mm
08:20 39.7 °F /  4.3 °C 32.8 °F /  0.4 °C 30.35 in /  1027.7 hPa ENE 4.1 mph /  6.6 km/h 9.2 mph /  14.8 km/h 76 % 0.00 in /  0 mm
08:25 39.8 °F /  4.3 °C 32.8 °F /  0.4 °C 30.35 in /  1027.7 hPa East 0.9 mph /  1.4 km/h 3.5 mph /  5.6 km/h 76 % 0.00 in /  0 mm
08:30 40.0 °F /  4.4 °C 33.0 °F /  0.6 °C 30.35 in /  1027.7 hPa ESE 0.2 mph /  0.3 km/h 3.5 mph /  5.6 km/h 76 % 0.00 in /  0 mm
08:35 40.0 °F /  4.4 °C 32.7 °F /  0.4 °C 30.36 in /  1028 hPa ESE 0.2 mph /  0.3 km/h 1.2 mph /  1.9 km/h 75 % 0.00 in /  0 mm
08:40 40.1 °F /  4.5 °C 32.5 °F /  0.3 °C 30.35 in /  1027.7 hPa ESE 0.2 mph /  0.3 km/h 1.2 mph /  1.9 km/h 74 % 0.00 in /  0 mm
08:45 40.2 °F /  4.6 °C 32.6 °F /  0.3 °C 30.35 in /  1027.7 hPa Calm   1.2 mph /  1.9 km/h 74 % 0.00 in /  0 mm
08:50 40.4 °F /  4.7 °C 32.8 °F /  0.4 °C 30.35 in /  1027.7 hPa ESE 0.8 mph /  1.3 km/h 2.3 mph /  3.7 km/h 74 % 0.00 in /  0 mm
09:00 40.7 °F /  4.8 °C 33.4 °F /  0.8 °C 30.33 in /  1027 hPa East 5.5 mph /  8.9 km/h 6.9 mph /  11.1 km/h 75 % 0.00 in /  0 mm
09:05 40.9 °F /  4.9 °C 33.6 °F /  0.9 °C 30.33 in /  1027 hPa East 3.0 mph /  4.8 km/h 3.5 mph /  5.6 km/h 75 % 0.00 in /  0 mm
09:10 41.0 °F /  5 °C 33.7 °F /  0.9 °C 30.33 in /  1027 hPa East 1.5 mph /  2.4 km/h 3.5 mph /  5.6 km/h 75 % 0.00 in /  0 mm
09:20 41.3 °F /  5.2 °C 34.0 °F /  1.1 °C 30.33 in /  1027 hPa East 1.2 mph /  1.9 km/h 2.0 mph /  3.2 km/h 75 % 0.00 in /  0 mm
09:25 41.4 °F /  5.2 °C 33.7 °F /  0.9 °C 30.32 in /  1026.6 hPa East 2.6 mph /  4.2 km/h 5.0 mph /  8 km/h 74 % 0.00 in /  0 mm
09:35 41.8 °F /  5.4 °C 33.8 °F /  1 °C 30.31 in /  1026.3 hPa East 5.5 mph /  8.9 km/h 7.0 mph /  11.3 km/h 73 % 0.00 in /  0 mm
09:40 41.9 °F /  5.5 °C 33.5 °F /  0.8 °C 30.30 in /  1026 hPa East 4.8 mph /  7.7 km/h 8.1 mph /  13 km/h 72 % 0.00 in /  0 mm
09:56 42.4 °F /  5.8 °C 33.7 °F /  0.9 °C 30.29 in /  1025.6 hPa East 6.0 mph /  9.7 km/h 9.0 mph /  14.5 km/h 71 % 0.00 in /  0 mm
10:01 42.5 °F /  5.8 °C 33.8 °F /  1 °C 30.29 in /  1025.6 hPa East 4.3 mph /  6.9 km/h 5.0 mph /  8 km/h 71 % 0.00 in /  0 mm
10:06 42.6 °F /  5.9 °C 33.9 °F /  1.1 °C 30.29 in /  1025.6 hPa East 3.0 mph /  4.8 km/h 7.0 mph /  11.3 km/h 71 % 0.00 in /  0 mm
10:21 42.9 °F /  6.1 °C 33.1 °F /  0.6 °C 30.30 in /  1026 hPa Calm   3.0 mph /  4.8 km/h 68 % 0.00 in /  0 mm
10:26 43.1 °F /  6.2 °C 33.6 °F /  0.9 °C 30.30 in /  1026 hPa Calm   2.0 mph /  3.2 km/h 69 % 0.00 in /  0 mm
10:36 43.5 °F /  6.4 °C 33.6 °F /  0.9 °C 30.29 in /  1025.6 hPa Calm     68 % 0.00 in /  0 mm
10:41 43.7 °F /  6.5 °C 33.8 °F /  1 °C 30.29 in /  1025.6 hPa Calm   2.0 mph /  3.2 km/h 68 % 0.00 in /  0 mm
10:46 43.9 °F /  6.6 °C 34.4 °F /  1.3 °C 30.28 in /  1025.3 hPa Calm   1.0 mph /  1.6 km/h 69 % 0.00 in /  0 mm
10:51 44.1 °F /  6.7 °C 34.6 °F /  1.4 °C 30.28 in /  1025.3 hPa Calm     69 % 0.00 in /  0 mm
10:56 44.4 °F /  6.9 °C 34.9 °F /  1.6 °C 30.28 in /  1025.3 hPa ENE 1.0 mph /  1.6 km/h 2.0 mph /  3.2 km/h 69 % 0.00 in /  0 mm
11:01 44.5 °F /  6.9 °C 34.2 °F /  1.2 °C 30.28 in /  1025.3 hPa Calm     67 % 0.00 in /  0 mm
11:06 44.7 °F /  7.1 °C 34.4 °F /  1.3 °C 30.28 in /  1025.3 hPa Calm   1.0 mph /  1.6 km/h 67 % 0.00 in /  0 mm
11:21 45.4 °F /  7.4 °C 35.1 °F /  1.7 °C 30.27 in /  1024.9 hPa Calm   1.2 mph /  1.9 km/h 67 % 0.00 in /  0 mm
11:26 45.5 °F /  7.5 °C 35.5 °F /  1.9 °C 30.27 in /  1024.9 hPa Calm   1.0 mph /  1.6 km/h 68 % 0.00 in /  0 mm
11:31 45.8 °F /  7.7 °C 36.2 °F /  2.3 °C 30.27 in /  1024.9 hPa ENE 1.0 mph /  1.6 km/h 2.0 mph /  3.2 km/h 69 % 0.00 in /  0 mm
11:36 46.0 °F /  7.8 °C 36.0 °F /  2.2 °C 30.28 in /  1025.3 hPa NW 1.0 mph /  1.6 km/h 4.0 mph /  6.4 km/h 68 % 0.00 in /  0 mm
11:41 46.1 °F /  7.8 °C 36.1 °F /  2.3 °C 30.27 in /  1024.9 hPa WNW 1.0 mph /  1.6 km/h 3.0 mph /  4.8 km/h 68 % 0.00 in /  0 mm
11:56 46.2 °F /  7.9 °C 35.8 °F /  2.1 °C 30.27 in /  1024.9 hPa WNW 2.0 mph /  3.2 km/h 7.0 mph /  11.3 km/h 67 % 0.00 in /  0 mm
12:01 46.2 °F /  7.9 °C 35.8 °F /  2.1 °C 30.27 in /  1024.9 hPa WNW 2.1 mph /  3.4 km/h 3.5 mph /  5.6 km/h 67 % 0.00 in /  0 mm
12:06 46.2 °F /  7.9 °C 35.8 °F /  2.1 °C 30.27 in /  1024.9 hPa WNW 2.3 mph /  3.7 km/h 5.8 mph /  9.3 km/h 67 % 0.00 in /  0 mm
12:11 46.3 °F /  7.9 °C 36.3 °F /  2.4 °C 30.27 in /  1024.9 hPa WNW 1.9 mph /  3.1 km/h 3.5 mph /  5.6 km/h 68 % 0.00 in /  0 mm
12:16 46.4 °F /  8 °C 36.8 °F /  2.7 °C 30.27 in /  1024.9 hPa WNW 1.6 mph /  2.6 km/h 4.0 mph /  6.4 km/h 69 % 0.00 in /  0 mm
12:26 46.6 °F /  8.1 °C 37.3 °F /  2.9 °C 30.26 in /  1024.6 hPa NNW 2.4 mph /  3.9 km/h 4.0 mph /  6.4 km/h 70 % 0.00 in /  0 mm
12:31 46.7 °F /  8.2 °C 38.1 °F /  3.4 °C 30.26 in /  1024.6 hPa North 4.4 mph /  7.1 km/h 6.9 mph /  11.1 km/h 72 % 0.00 in /  0 mm
12:36 46.6 °F /  8.1 °C 38.4 °F /  3.6 °C 30.26 in /  1024.6 hPa NNE 4.0 mph /  6.4 km/h 5.0 mph /  8 km/h 73 % 0.00 in /  0 mm
12:56 46.2 °F /  7.9 °C 38.0 °F /  3.3 °C 30.24 in /  1023.9 hPa NNE 4.3 mph /  6.9 km/h 5.8 mph /  9.3 km/h 73 % 0.00 in /  0 mm
13:01 46.1 °F /  7.8 °C 38.3 °F /  3.5 °C 30.24 in /  1023.9 hPa NE 3.2 mph /  5.1 km/h 4.0 mph /  6.4 km/h 74 % 0.00 in /  0 mm
13:06 46.1 °F /  7.8 °C 38.3 °F /  3.5 °C 30.24 in /  1023.9 hPa NNE 4.2 mph /  6.8 km/h 5.8 mph /  9.3 km/h 74 % 0.00 in /  0 mm
13:11 46.2 °F /  7.9 °C 38.7 °F /  3.7 °C 30.23 in /  1023.6 hPa NNE 1.4 mph /  2.3 km/h 3.5 mph /  5.6 km/h 75 % 0.00 in /  0 mm
13:16 46.2 °F /  7.9 °C 38.4 °F /  3.6 °C 30.23 in /  1023.6 hPa NE 1.7 mph /  2.7 km/h 3.0 mph /  4.8 km/h 74 % 0.00 in /  0 mm
13:21 46.2 °F /  7.9 °C 38.4 °F /  3.6 °C 30.22 in /  1023.2 hPa NNE 3.0 mph /  4.8 km/h 5.0 mph /  8 km/h 74 % 0.00 in /  0 mm
13:26 46.1 °F /  7.8 °C 38.3 °F /  3.5 °C 30.22 in /  1023.2 hPa ENE 2.2 mph /  3.5 km/h 4.6 mph /  7.4 km/h 74 % 0.00 in /  0 mm
13:31 46.0 °F /  7.8 °C 38.2 °F /  3.4 °C 30.22 in /  1023.2 hPa NE 2.0 mph /  3.2 km/h 3.5 mph /  5.6 km/h 74 % 0.00 in /  0 mm
13:36 45.9 °F /  7.7 °C 38.4 °F /  3.6 °C 30.22 in /  1023.2 hPa ENE 1.3 mph /  2.1 km/h 3.5 mph /  5.6 km/h 75 % 0.00 in /  0 mm
13:41 46.0 °F /  7.8 °C 38.9 °F /  3.8 °C 30.21 in /  1022.9 hPa ENE 1.6 mph /  2.6 km/h 3.5 mph /  5.6 km/h 76 % 0.00 in /  0 mm
13:51 46.2 °F /  7.9 °C 38.4 °F /  3.6 °C 30.21 in /  1022.9 hPa ENE 0.3 mph /  0.5 km/h 3.5 mph /  5.6 km/h 74 % 0.00 in /  0 mm
13:56 46.1 °F /  7.8 °C 38.6 °F /  3.7 °C 30.21 in /  1022.9 hPa ENE 2.2 mph /  3.5 km/h 5.0 mph /  8 km/h 75 % 0.00 in /  0 mm
14:01 46.0 °F /  7.8 °C 38.5 °F /  3.6 °C 30.20 in /  1022.6 hPa ENE 2.3 mph /  3.7 km/h 4.0 mph /  6.4 km/h 75 % 0.00 in /  0 mm
14:16 46.0 °F /  7.8 °C 38.9 °F /  3.8 °C 30.19 in /  1022.2 hPa East 4.2 mph /  6.8 km/h 5.0 mph /  8 km/h 76 % 0.00 in /  0 mm
14:22 45.9 °F /  7.7 °C 38.8 °F /  3.8 °C 30.18 in /  1021.9 hPa ENE 3.3 mph /  5.3 km/h 8.1 mph /  13 km/h 76 % 0.00 in /  0 mm
14:32 45.6 °F /  7.6 °C 38.8 °F /  3.8 °C 30.17 in /  1021.6 hPa NE 4.1 mph /  6.6 km/h 5.8 mph /  9.3 km/h 77 % 0.00 in /  0 mm
14:37 45.5 °F /  7.5 °C 39.0 °F /  3.9 °C 30.17 in /  1021.6 hPa East 3.6 mph /  5.8 km/h 5.0 mph /  8 km/h 78 % 0.00 in /  0 mm
14:42 45.5 °F /  7.5 °C 39.4 °F /  4.1 °C 30.17 in /  1021.6 hPa ENE 3.5 mph /  5.6 km/h 5.8 mph /  9.3 km/h 79 % 0.00 in /  0 mm
14:52 45.5 °F /  7.5 °C 39.4 °F /  4.1 °C 30.17 in /  1021.6 hPa ENE 4.5 mph /  7.2 km/h 6.9 mph /  11.1 km/h 79 % 0.00 in /  0 mm
15:02 45.5 °F /  7.5 °C 39.7 °F /  4.3 °C 30.17 in /  1021.6 hPa East 3.4 mph /  5.5 km/h 5.8 mph /  9.3 km/h 80 % 0.00 in /  0 mm
15:07 45.5 °F /  7.5 °C 40.0 °F /  4.4 °C 30.17 in /  1021.6 hPa East 2.7 mph /  4.3 km/h 4.6 mph /  7.4 km/h 81 % 0.00 in /  0 mm
15:12 45.5 °F /  7.5 °C 40.0 °F /  4.4 °C 30.16 in /  1021.2 hPa East 5.0 mph /  8 km/h 6.0 mph /  9.7 km/h 81 % 0.00 in /  0 mm
15:17 45.6 °F /  7.6 °C 40.4 °F /  4.7 °C 30.16 in /  1021.2 hPa ENE 2.6 mph /  4.2 km/h 4.6 mph /  7.4 km/h 82 % 0.00 in /  0 mm
15:22 45.6 °F /  7.6 °C 40.4 °F /  4.7 °C 30.15 in /  1020.9 hPa East 2.3 mph /  3.7 km/h 3.5 mph /  5.6 km/h 82 % 0.00 in /  0 mm
15:27 45.5 °F /  7.5 °C 40.3 °F /  4.6 °C 30.15 in /  1020.9 hPa East 1.8 mph /  2.9 km/h 3.5 mph /  5.6 km/h 82 % 0.00 in /  0 mm
15:32 45.4 °F /  7.4 °C 40.5 °F /  4.7 °C 30.15 in /  1020.9 hPa ENE 2.6 mph /  4.2 km/h 3.5 mph /  5.6 km/h 83 % 0.00 in /  0 mm
15:47 45.3 °F /  7.4 °C 40.4 °F /  4.7 °C 30.14 in /  1020.5 hPa East 2.4 mph /  3.9 km/h 3.5 mph /  5.6 km/h 83 % 0.00 in /  0 mm
15:52 45.3 °F /  7.4 °C 40.4 °F /  4.7 °C 30.13 in /  1020.2 hPa East 0.4 mph /  0.6 km/h 1.2 mph /  1.9 km/h 83 % 0.00 in /  0 mm
15:57 45.2 °F /  7.3 °C 40.3 °F /  4.6 °C 30.13 in /  1020.2 hPa East 1.0 mph /  1.6 km/h 2.3 mph /  3.7 km/h 83 % 0.00 in /  0 mm
16:02 45.2 °F /  7.3 °C 40.7 °F /  4.8 °C 30.13 in /  1020.2 hPa East 0.8 mph /  1.3 km/h 2.0 mph /  3.2 km/h 84 % 0.00 in /  0 mm
16:07 45.2 °F /  7.3 °C 40.3 °F /  4.6 °C 30.13 in /  1020.2 hPa Calm   1.2 mph /  1.9 km/h 83 % 0.00 in /  0 mm
16:22 45.0 °F /  7.2 °C 40.1 °F /  4.5 °C 30.13 in /  1020.2 hPa Calm     83 % 0.00 in /  0 mm
16:37 44.9 °F /  7.2 °C 40.0 °F /  4.4 °C 30.11 in /  1019.5 hPa East 0.3 mph /  0.5 km/h 1.2 mph /  1.9 km/h 83 % 0.00 in /  0 mm
16:42 44.8 °F /  7.1 °C 40.0 °F /  4.4 °C 30.11 in /  1019.5 hPa Calm   1.2 mph /  1.9 km/h 83 % 0.00 in /  0 mm
16:52 44.7 °F /  7.1 °C 39.9 °F /  4.4 °C 30.11 in /  1019.5 hPa Calm     83 % 0.00 in /  0 mm
17:02 44.5 °F /  6.9 °C 39.7 °F /  4.3 °C 30.10 in /  1019.2 hPa Calm     83 % 0.00 in /  0 mm
17:07 44.5 °F /  6.9 °C 39.7 °F /  4.3 °C 30.10 in /  1019.2 hPa Calm     83 % 0.00 in /  0 mm
17:13 44.4 °F /  6.9 °C 39.6 °F /  4.2 °C 30.10 in /  1019.2 hPa Calm     83 % 0.00 in /  0 mm
17:18 44.3 °F /  6.8 °C 39.5 °F /  4.2 °C 30.10 in /  1019.2 hPa Calm     83 % 0.00 in /  0 mm
17:23 44.2 °F /  6.8 °C 39.4 °F /  4.1 °C 30.10 in /  1019.2 hPa Calm     83 % 0.00 in /  0 mm
17:28 44.1 °F /  6.7 °C 39.3 °F /  4.1 °C 30.10 in /  1019.2 hPa Calm   1.2 mph /  1.9 km/h 83 % 0.00 in /  0 mm
17:38 43.8 °F /  6.6 °C 39.3 °F /  4.1 °C 30.10 in /  1019.2 hPa Calm     84 % 0.00 in /  0 mm
17:43 43.7 °F /  6.5 °C 39.2 °F /  4 °C 30.10 in /  1019.2 hPa East 0.6 mph /  1 km/h 1.2 mph /  1.9 km/h 84 % 0.00 in /  0 mm
17:58 43.3 °F /  6.3 °C 39.1 °F /  3.9 °C 30.10 in /  1019.2 hPa Calm     85 % 0.00 in /  0 mm
18:08 43.1 °F /  6.2 °C 38.9 °F /  3.8 °C 30.10 in /  1019.2 hPa Calm     85 % 0.00 in /  0 mm
18:13 43.0 °F /  6.1 °C 38.8 °F /  3.8 °C 30.10 in /  1019.2 hPa Calm     85 % 0.00 in /  0 mm
18:18 42.9 °F /  6.1 °C 38.7 °F /  3.7 °C 30.09 in /  1018.8 hPa Calm     85 % 0.00 in /  0 mm
18:23 42.8 °F /  6 °C 38.6 °F /  3.7 °C 30.09 in /  1018.8 hPa Calm     85 % 0.00 in /  0 mm
18:28 42.7 °F /  5.9 °C 38.5 °F /  3.6 °C 30.09 in /  1018.8 hPa Calm     85 % 0.00 in /  0 mm
18:33 42.6 °F /  5.9 °C 38.7 °F /  3.7 °C 30.09 in /  1018.8 hPa Calm     86 % 0.00 in /  0 mm
18:38 42.5 °F /  5.8 °C 38.6 °F /  3.7 °C 30.09 in /  1018.8 hPa Calm     86 % 0.00 in /  0 mm
18:43 42.4 °F /  5.8 °C 38.5 °F /  3.6 °C 30.08 in /  1018.5 hPa Calm     86 % 0.00 in /  0 mm
18:58 42.1 °F /  5.6 °C 38.2 °F /  3.4 °C 30.08 in /  1018.5 hPa Calm     86 % 0.00 in /  0 mm
19:08 41.9 °F /  5.5 °C 38.0 °F /  3.3 °C 30.08 in /  1018.5 hPa Calm     86 % 0.00 in /  0 mm
19:13 41.7 °F /  5.4 °C 37.8 °F /  3.2 °C 30.07 in /  1018.2 hPa Calm     86 % 0.00 in /  0 mm
19:24 41.5 °F /  5.3 °C 37.6 °F /  3.1 °C 30.07 in /  1018.2 hPa Calm     86 % 0.00 in /  0 mm
19:29 41.4 °F /  5.2 °C 37.8 °F /  3.2 °C 30.07 in /  1018.2 hPa Calm     87 % 0.00 in /  0 mm
19:34 41.3 °F /  5.2 °C 37.7 °F /  3.2 °C 30.07 in /  1018.2 hPa Calm     87 % 0.00 in /  0 mm
19:39 41.2 °F /  5.1 °C 37.6 °F /  3.1 °C 30.07 in /  1018.2 hPa Calm     87 % 0.00 in /  0 mm
19:44 41.2 °F /  5.1 °C 37.9 °F /  3.3 °C 30.07 in /  1018.2 hPa Calm     88 % 0.00 in /  0 mm
19:54 41.4 °F /  5.2 °C 39.0 °F /  3.9 °C 30.07 in /  1018.2 hPa Calm     91 % 0.00 in /  0 mm
20:04 41.8 °F /  5.4 °C 39.9 °F /  4.4 °C 30.07 in /  1018.2 hPa Calm     93 % 0.00 in /  0 mm
20:09 42.0 °F /  5.6 °C 40.1 °F /  4.5 °C 30.07 in /  1018.2 hPa East 0.2 mph /  0.3 km/h 1.2 mph /  1.9 km/h 93 % 0.00 in /  0 mm
20:14 42.3 °F /  5.7 °C 40.7 °F /  4.8 °C 30.06 in /  1017.8 hPa SE 0.8 mph /  1.3 km/h 2.0 mph /  3.2 km/h 94 % 0.00 in /  0 mm
20:19 42.5 °F /  5.8 °C 40.9 °F /  4.9 °C 30.06 in /  1017.8 hPa SE 2.4 mph /  3.9 km/h 3.5 mph /  5.6 km/h 94 % 0.00 in /  0 mm
20:29 44.8 °F /  7.1 °C 43.7 °F /  6.5 °C 30.06 in /  1017.8 hPa SSE 1.8 mph /  2.9 km/h 4.0 mph /  6.4 km/h 96 % 0.00 in /  0 mm
20:34 45.9 °F /  7.7 °C 44.8 °F /  7.1 °C 30.05 in /  1017.5 hPa SSE 3.4 mph /  5.5 km/h 5.0 mph /  8 km/h 96 % 0.00 in /  0 mm
20:39 46.7 °F /  8.2 °C 45.6 °F /  7.6 °C 30.05 in /  1017.5 hPa SSE 1.4 mph /  2.3 km/h 4.6 mph /  7.4 km/h 96 % 0.00 in /  0 mm
20:44 47.1 °F /  8.4 °C 45.7 °F /  7.6 °C 30.06 in /  1017.8 hPa South 0.3 mph /  0.5 km/h 1.2 mph /  1.9 km/h 95 % 0.00 in /  0 mm
20:49 47.5 °F /  8.6 °C 46.1 °F /  7.8 °C 30.05 in /  1017.5 hPa SSE 1.3 mph /  2.1 km/h 7.0 mph /  11.3 km/h 95 % 0.00 in /  0 mm
20:59 47.9 °F /  8.8 °C 46.0 °F /  7.8 °C 30.06 in /  1017.8 hPa SSW 0.4 mph /  0.6 km/h 2.3 mph /  3.7 km/h 93 % 0.00 in /  0 mm
21:04 48.0 °F /  8.9 °C 46.1 °F /  7.8 °C 30.06 in /  1017.8 hPa Calm   1.0 mph /  1.6 km/h 93 % 0.00 in /  0 mm
21:09 48.2 °F /  9 °C 46.3 °F /  7.9 °C 30.06 in /  1017.8 hPa SSW 1.5 mph /  2.4 km/h 3.5 mph /  5.6 km/h 93 % 0.00 in /  0 mm
21:14 48.2 °F /  9 °C 46.0 °F /  7.8 °C 30.06 in /  1017.8 hPa SSW 0.5 mph /  0.8 km/h 2.3 mph /  3.7 km/h 92 % 0.00 in /  0 mm
21:19 48.3 °F /  9.1 °C 46.1 °F /  7.8 °C 30.05 in /  1017.5 hPa SSW 0.4 mph /  0.6 km/h   92 % 0.00 in /  0 mm
21:24 48.3 °F /  9.1 °C 46.1 °F /  7.8 °C 30.05 in /  1017.5 hPa SSW 0.6 mph /  1 km/h 2.3 mph /  3.7 km/h 92 % 0.00 in /  0 mm
21:29 48.4 °F /  9.1 °C 46.2 °F /  7.9 °C 30.05 in /  1017.5 hPa SSW 0.2 mph /  0.3 km/h 1.2 mph /  1.9 km/h 92 % 0.00 in /  0 mm
21:34 48.4 °F /  9.1 °C 45.9 °F /  7.7 °C 30.05 in /  1017.5 hPa SSW 1.2 mph /  1.9 km/h 2.3 mph /  3.7 km/h 91 % 0.00 in /  0 mm
21:39 48.5 °F /  9.2 °C 46.0 °F /  7.8 °C 30.05 in /  1017.5 hPa SSW 0.6 mph /  1 km/h 3.5 mph /  5.6 km/h 91 % 0.00 in /  0 mm
21:44 48.6 °F /  9.2 °C 46.1 °F /  7.8 °C 30.04 in /  1017.2 hPa SSW 0.2 mph /  0.3 km/h   91 % 0.00 in /  0 mm
21:49 48.6 °F /  9.2 °C 46.1 °F /  7.8 °C 30.04 in /  1017.2 hPa SSW 0.1 mph /  0.2 km/h   91 % 0.00 in /  0 mm
21:55 48.7 °F /  9.3 °C 46.2 °F /  7.9 °C 30.04 in /  1017.2 hPa SSW 1.4 mph /  2.3 km/h 3.0 mph /  4.8 km/h 91 % 0.00 in /  0 mm
22:00 48.8 °F /  9.3 °C 46.3 °F /  7.9 °C 30.04 in /  1017.2 hPa Calm   1.2 mph /  1.9 km/h 91 % 0.00 in /  0 mm
22:05 48.9 °F /  9.4 °C 46.4 °F /  8 °C 30.05 in /  1017.5 hPa SSW 1.5 mph /  2.4 km/h 3.5 mph /  5.6 km/h 91 % 0.00 in /  0 mm
22:15 49.1 °F /  9.5 °C 46.6 °F /  8.1 °C 30.05 in /  1017.5 hPa SW 0.5 mph /  0.8 km/h 2.3 mph /  3.7 km/h 91 % 0.00 in /  0 mm
22:20 49.2 °F /  9.6 °C 46.7 °F /  8.2 °C 30.05 in /  1017.5 hPa SW 0.5 mph /  0.8 km/h 2.3 mph /  3.7 km/h 91 % 0.00 in /  0 mm
22:21 49.2 °F /  9.6 °C 46.7 °F /  8.2 °C 30.05 in /  1017.5 hPa SW 2.3 mph /  3.7 km/h 3.5 mph /  5.6 km/h 91 % 0.00 in /  0 mm
22:25 49.4 °F /  9.7 °C 46.9 °F /  8.3 °C 29.83 in /  1010 hPa Calm   1.2 mph /  1.9 km/h 91 % 0.00 in /  0 mm
22:26 49.4 °F /  9.7 °C 47.2 °F /  8.4 °C 30.05 in /  1017.5 hPa Calm   1.2 mph /  1.9 km/h 92 % 0.00 in /  0 mm
22:28 49.4 °F /  9.7 °C 47.2 °F /  8.4 °C 30.05 in /  1017.5 hPa SW 3.6 mph /  5.8 km/h 5.8 mph /  9.3 km/h 92 % 0.00 in /  0 mm
22:33 49.6 °F /  9.8 °C 47.4 °F /  8.6 °C 30.05 in /  1017.5 hPa SW 0.5 mph /  0.8 km/h 2.0 mph /  3.2 km/h 92 % 0.00 in /  0 mm
22:35 49.6 °F /  9.8 °C 47.1 °F /  8.4 °C 29.83 in /  1010 hPa SW 0.1 mph /  0.2 km/h 2.3 mph /  3.7 km/h 91 % 0.00 in /  0 mm
22:40 49.8 °F /  9.9 °C 47.3 °F /  8.5 °C 30.05 in /  1017.5 hPa WSW 0.2 mph /  0.3 km/h 2.0 mph /  3.2 km/h 91 % 0.00 in /  0 mm
22:45 49.9 °F /  9.9 °C 47.4 °F /  8.6 °C 30.05 in /  1017.5 hPa WSW 1.1 mph /  1.8 km/h 2.3 mph /  3.7 km/h 91 % 0.00 in /  0 mm
22:50 50.0 °F /  10 °C 47.5 °F /  8.6 °C 30.05 in /  1017.5 hPa WSW 0.1 mph /  0.2 km/h 1.2 mph /  1.9 km/h 91 % 0.00 in /  0 mm
22:55 50.1 °F /  10.1 °C 47.6 °F /  8.7 °C 30.05 in /  1017.5 hPa WSW 0.6 mph /  1 km/h 2.3 mph /  3.7 km/h 91 % 0.00 in /  0 mm
23:00 50.2 °F /  10.1 °C 47.7 °F /  8.7 °C 30.04 in /  1017.2 hPa Calm   2.3 mph /  3.7 km/h 91 % 0.00 in /  0 mm
23:10 50.3 °F /  10.2 °C 47.8 °F /  8.8 °C 30.04 in /  1017.2 hPa Calm     91 % 0.00 in /  0 mm
23:15 50.3 °F /  10.2 °C 47.8 °F /  8.8 °C 30.04 in /  1017.2 hPa Calm     91 % 0.00 in /  0 mm
23:20 50.4 °F /  10.2 °C 47.6 °F /  8.7 °C 30.04 in /  1017.2 hPa Calm     90 % 0.00 in /  0 mm
23:25 50.4 °F /  10.2 °C 47.9 °F /  8.8 °C 30.04 in /  1017.2 hPa Calm   1.2 mph /  1.9 km/h 91 % 0.00 in /  0 mm
23:35 50.5 °F /  10.3 °C 48.0 °F /  8.9 °C 30.04 in /  1017.2 hPa Calm   3.0 mph /  4.8 km/h 91 % 0.00 in /  0 mm
23:40 50.5 °F /  10.3 °C 48.0 °F /  8.9 °C 30.03 in /  1016.8 hPa Calm   4.0 mph /  6.4 km/h 91 % 0.00 in /  0 mm
23:45 50.6 °F /  10.3 °C 48.4 °F /  9.1 °C 30.03 in /  1016.8 hPa Calm   3.5 mph /  5.6 km/h 92 % 0.00 in /  0 mm
Crab Meadow Weather
Compliments of Weather Underground - 2.75 mb

Script developed by  Jim McMurry - jmcmurry@mwt.net Adapted for the template by  Wim van der Kuil - Leuven-Template.eu

Weather Terms: Lake Effect Snow Warning - Lake effect snowfall of 6 inches or more in 12 hours or less, or 8 inches or more in 24 hours or less.